createdAt,value
2023-04-02T00:00:42.861Z,27.41
2023-04-02T00:01:42.902Z,25.99
2023-04-02T00:02:42.969Z,26.16
2023-04-02T00:03:43.129Z,25.86
2023-04-02T00:04:43.068Z,27.75
2023-04-02T00:05:43.120Z,27.33
2023-04-02T00:06:43.160Z,25.84
2023-04-02T00:07:43.205Z,26.97
2023-04-02T00:08:43.270Z,27.11
2023-04-02T00:09:43.309Z,26.37
2023-04-02T00:10:43.367Z,26.25
2023-04-02T00:11:43.447Z,27.49
2023-04-02T00:12:43.474Z,28.21
2023-04-02T00:13:43.541Z,27.28
2023-04-02T00:14:43.614Z,25.67
2023-04-02T00:15:43.658Z,26.71
2023-04-02T00:16:43.753Z,25.64
2023-04-02T00:17:43.774Z,26.51
2023-04-02T00:18:43.839Z,26.19
2023-04-02T00:19:43.842Z,25.99
2023-04-02T00:20:43.923Z,26.13
2023-04-02T00:21:43.968Z,25.62
2023-04-02T00:22:44.100Z,26.54
2023-04-02T00:23:44.103Z,27.31
2023-04-02T00:24:44.123Z,26.42
2023-04-02T00:25:44.174Z,25.24
2023-04-02T00:26:44.268Z,26.76
2023-04-02T00:27:44.328Z,26.76
2023-04-02T00:28:44.322Z,27.63
2023-04-02T00:29:44.398Z,27.27
2023-04-02T00:30:44.445Z,25.95
2023-04-02T00:31:44.526Z,27.49
2023-04-02T00:32:44.626Z,27.52
2023-04-02T00:33:44.594Z,25.71
2023-04-02T00:34:44.685Z,26.28
2023-04-02T00:35:44.742Z,27.51
2023-04-02T00:36:44.789Z,28.53
2023-04-02T00:37:44.928Z,27.22
2023-04-02T00:38:46.113Z,25.00
2023-04-02T00:39:45.040Z,27.77
2023-04-02T00:40:45.094Z,29.07
2023-04-02T00:41:45.153Z,27.35
2023-04-02T00:42:45.216Z,26.27
2023-04-02T00:43:45.286Z,28.38
2023-04-02T00:44:45.369Z,28.51
2023-04-02T00:45:45.406Z,28.52
2023-04-02T00:46:45.419Z,28.90
2023-04-02T00:47:45.577Z,27.80
2023-04-02T00:48:45.578Z,28.47
2023-04-02T00:49:45.659Z,26.20
2023-04-02T00:50:45.719Z,26.23
2023-04-02T00:51:45.757Z,27.42
2023-04-02T00:52:45.824Z,27.39
2023-04-02T00:53:45.850Z,27.01
2023-04-02T00:54:45.922Z,25.00
2023-04-02T00:55:46.028Z,27.07
2023-04-02T00:56:46.075Z,25.75
2023-04-02T00:57:46.116Z,27.42
2023-04-02T00:58:46.188Z,28.09
2023-04-02T00:59:46.212Z,28.75
2023-04-02T01:00:46.297Z,26.86
2023-04-02T01:01:46.402Z,27.45
2023-04-02T01:02:46.544Z,28.48
2023-04-02T01:03:46.565Z,27.30
2023-04-02T01:04:46.530Z,26.36
2023-04-02T01:05:46.607Z,26.18
2023-04-02T01:06:46.652Z,26.73
2023-04-02T01:07:46.700Z,26.04
2023-04-02T01:08:46.733Z,27.15
2023-04-02T01:09:46.792Z,27.34
2023-04-02T01:10:46.869Z,26.18
2023-04-02T01:11:46.930Z,27.33
2023-04-02T01:12:46.959Z,26.71
2023-04-02T01:13:47.046Z,25.49
2023-04-02T01:14:47.079Z,26.16
2023-04-02T01:15:47.218Z,25.52
2023-04-02T01:16:47.218Z,26.95
2023-04-02T01:17:47.332Z,26.77
2023-04-02T01:18:47.338Z,27.26
2023-04-02T01:19:47.391Z,26.51
2023-04-02T01:20:47.465Z,25.38
2023-04-02T01:21:47.502Z,25.63
2023-04-02T01:22:47.562Z,27.69
2023-04-02T01:23:47.606Z,25.99
2023-04-02T01:24:47.694Z,26.72
2023-04-02T01:25:47.766Z,28.43
2023-04-02T01:26:47.827Z,28.89
2023-04-02T01:27:47.911Z,27.51
2023-04-02T01:28:47.927Z,28.34
2023-04-02T01:29:48.000Z,27.91
2023-04-02T01:30:48.043Z,27.10
2023-04-02T01:31:48.187Z,27.32
2023-04-02T01:32:48.273Z,27.42
2023-04-02T01:33:48.260Z,26.76
2023-04-02T01:34:48.276Z,28.08
2023-04-02T01:35:48.399Z,26.87
2023-04-02T01:36:48.396Z,26.87
2023-04-02T01:37:48.482Z,27.25
2023-04-02T01:38:48.553Z,28.18
2023-04-02T01:39:48.600Z,25.00
2023-04-02T01:40:48.649Z,25.00
2023-04-02T01:41:48.722Z,28.40
2023-04-02T01:42:48.793Z,25.80
2023-04-02T01:43:48.781Z,27.11
2023-04-02T01:44:48.902Z,26.76
2023-04-02T01:45:48.944Z,26.97
2023-04-02T01:46:48.994Z,26.09
2023-04-02T01:47:49.144Z,25.70
2023-04-02T01:48:49.091Z,25.83
2023-04-02T01:49:49.141Z,27.34
2023-04-02T01:50:49.190Z,27.77
2023-04-02T01:51:49.248Z,26.98
2023-04-02T01:52:49.334Z,27.75
2023-04-02T01:53:49.396Z,26.80
2023-04-02T01:54:49.453Z,26.90
2023-04-02T01:55:49.493Z,26.95
2023-04-02T01:56:49.586Z,26.47
2023-04-02T01:57:49.595Z,28.14
2023-04-02T01:58:49.644Z,28.59
2023-04-02T01:59:49.727Z,27.24
2023-04-02T02:00:49.834Z,25.56
2023-04-02T02:01:49.829Z,26.73
2023-04-02T02:02:49.885Z,28.27
2023-04-02T02:03:49.946Z,28.38
2023-04-02T02:04:49.982Z,28.09
2023-04-02T02:05:50.031Z,26.63
2023-04-02T02:06:50.068Z,28.52
2023-04-02T02:07:50.163Z,26.66
2023-04-02T02:08:50.187Z,27.28
2023-04-02T02:09:50.230Z,26.79
2023-04-02T02:10:50.325Z,25.89
2023-04-02T02:11:50.352Z,27.33
2023-04-02T02:12:50.420Z,27.46
2023-04-02T02:13:50.462Z,26.89
2023-04-02T02:14:50.548Z,25.00
2023-04-02T02:15:50.613Z,26.83
2023-04-02T02:16:50.649Z,26.38
2023-04-02T02:17:50.795Z,26.84
2023-04-02T02:18:50.804Z,25.44
2023-04-02T02:19:50.838Z,27.78
2023-04-02T02:20:50.894Z,25.34
2023-04-02T02:21:50.993Z,27.31
2023-04-02T02:22:51.040Z,27.84
2023-04-02T02:23:51.101Z,27.15
2023-04-02T02:24:51.161Z,27.92
2023-04-02T02:25:51.194Z,25.86
2023-04-02T02:26:51.239Z,27.46
2023-04-02T02:27:51.331Z,27.54
2023-04-02T02:28:51.371Z,26.73
2023-04-02T02:29:51.413Z,27.03
2023-04-02T02:30:51.510Z,25.65
2023-04-02T02:31:51.598Z,25.68
2023-04-02T02:32:51.688Z,26.39
2023-04-02T02:33:51.652Z,27.27
2023-04-02T02:34:51.719Z,26.30
2023-04-02T02:35:51.861Z,27.79
2023-04-02T02:36:51.838Z,25.72
2023-04-02T02:37:51.918Z,27.94
2023-04-02T02:38:54.088Z,26.45
2023-04-02T02:39:52.031Z,26.30
2023-04-02T02:40:52.104Z,26.63
2023-04-02T02:41:52.207Z,26.71
2023-04-02T02:42:52.268Z,25.25
2023-04-02T02:43:52.301Z,25.17
2023-04-02T02:44:52.336Z,28.73
2023-04-02T02:45:52.437Z,25.34
2023-04-02T02:46:52.496Z,26.60
2023-04-02T02:47:52.586Z,27.15
2023-04-02T02:48:52.618Z,26.53
2023-04-02T02:49:52.644Z,27.88
2023-04-02T02:50:52.723Z,27.70
2023-04-02T02:51:52.766Z,26.22
2023-04-02T02:52:52.823Z,26.00
2023-04-02T02:53:52.919Z,27.46
2023-04-02T02:54:52.954Z,26.23
2023-04-02T02:55:53.033Z,26.94
2023-04-02T02:56:53.100Z,27.89
2023-04-02T02:57:53.136Z,28.64
2023-04-02T02:58:53.182Z,25.17
2023-04-02T02:59:53.268Z,26.58
2023-04-02T03:00:53.308Z,25.75
2023-04-02T03:01:53.408Z,27.13
2023-04-02T03:02:53.570Z,25.30
2023-04-02T03:03:53.750Z,25.55
2023-04-02T03:04:53.563Z,26.96
2023-04-02T03:05:53.631Z,27.69
2023-04-02T03:06:53.667Z,25.96
2023-04-02T03:07:53.738Z,26.88
2023-04-02T03:08:53.843Z,27.86
2023-04-02T03:09:53.859Z,25.82
2023-04-02T03:10:54.017Z,27.83
2023-04-02T03:11:54.024Z,26.10
2023-04-02T03:12:54.095Z,27.39
2023-04-02T03:13:54.142Z,28.87
2023-04-02T03:14:54.208Z,27.16
2023-04-02T03:15:54.293Z,26.90
2023-04-02T03:16:54.331Z,26.69
2023-04-02T03:17:54.418Z,26.40
2023-04-02T03:18:54.433Z,25.82
2023-04-02T03:19:54.495Z,26.38
2023-04-02T03:20:54.567Z,28.24
2023-04-02T03:21:54.612Z,27.61
2023-04-02T03:22:54.704Z,25.69
2023-04-02T03:23:54.756Z,26.01
2023-04-02T03:24:54.836Z,25.20
2023-04-02T03:25:54.880Z,26.95
2023-04-02T03:26:54.922Z,27.51
2023-04-02T03:27:54.997Z,27.53
2023-04-02T03:28:55.035Z,27.57
2023-04-02T03:29:55.127Z,26.63
2023-04-02T03:30:55.162Z,27.01
2023-04-02T03:31:55.255Z,25.52
2023-04-02T03:32:55.329Z,28.22
2023-04-02T03:33:55.353Z,26.63
2023-04-02T03:34:55.471Z,27.57
2023-04-02T03:35:55.512Z,27.80
2023-04-02T03:36:55.566Z,26.07
2023-04-02T03:37:55.641Z,27.60
2023-04-02T03:38:55.683Z,26.49
2023-04-02T03:39:55.735Z,25.83
2023-04-02T03:40:55.818Z,27.58
2023-04-02T03:41:55.863Z,26.02
2023-04-02T03:42:55.973Z,26.85
2023-04-02T03:43:55.958Z,26.00
2023-04-02T03:44:56.028Z,26.36
2023-04-02T03:45:56.079Z,26.42
2023-04-02T03:46:56.166Z,25.91
2023-04-02T03:47:56.242Z,28.33
2023-04-02T03:48:56.242Z,26.87
2023-04-02T03:49:56.327Z,25.43
2023-04-02T03:50:56.400Z,27.53
2023-04-02T03:51:56.448Z,26.49
2023-04-02T03:52:56.513Z,25.93
2023-04-02T03:53:56.560Z,26.52
2023-04-02T03:54:56.645Z,27.69
2023-04-02T03:55:56.654Z,26.55
2023-04-02T03:56:56.776Z,28.61
2023-04-02T03:57:56.805Z,28.30
2023-04-02T03:58:56.867Z,26.86
2023-04-02T03:59:56.926Z,25.44
2023-04-02T04:00:57.011Z,27.52
2023-04-02T04:01:57.116Z,25.70
2023-04-02T04:02:57.159Z,27.32
2023-04-02T04:03:57.198Z,27.49
2023-04-02T04:04:57.259Z,26.07
2023-04-02T04:05:57.310Z,26.01
2023-04-02T04:06:57.381Z,27.33
2023-04-02T04:07:57.420Z,25.48
2023-04-02T04:08:57.500Z,25.03
2023-04-02T04:09:57.535Z,27.50
2023-04-02T04:10:57.590Z,28.19
2023-04-02T04:11:57.621Z,26.75
2023-04-02T04:12:57.714Z,28.08
2023-04-02T04:13:57.756Z,27.55
2023-04-02T04:14:57.810Z,29.17
2023-04-02T04:15:57.898Z,28.02
2023-04-02T04:16:57.938Z,28.68
2023-04-02T04:17:58.000Z,26.58
2023-04-02T04:18:58.039Z,28.16
2023-04-02T04:19:58.248Z,27.63
2023-04-02T04:20:59.186Z,27.72
2023-04-02T04:21:58.227Z,28.31
2023-04-02T04:22:58.292Z,27.13
2023-04-02T04:23:58.345Z,26.17
2023-04-02T04:24:58.477Z,27.63
2023-04-02T04:25:58.492Z,28.57
2023-04-02T04:26:58.520Z,28.58
2023-04-02T04:27:58.575Z,26.49
2023-04-02T04:28:58.666Z,27.21
2023-04-02T04:29:58.709Z,27.10
2023-04-02T04:30:58.770Z,27.87
2023-04-02T04:31:58.910Z,26.21
2023-04-02T04:32:58.947Z,28.05
2023-04-02T04:33:58.949Z,26.92
2023-04-02T04:34:59.036Z,27.60
2023-04-02T04:35:59.114Z,27.02
2023-04-02T04:36:59.155Z,27.02
2023-04-02T04:37:59.215Z,26.36
2023-04-02T04:38:59.247Z,25.70
2023-04-02T04:39:59.340Z,28.88
2023-04-02T04:40:59.393Z,28.33
2023-04-02T04:41:59.463Z,28.15
2023-04-02T04:42:59.501Z,27.38
2023-04-02T04:43:59.582Z,25.84
2023-04-02T04:44:59.627Z,27.25
2023-04-02T04:45:59.720Z,25.97
2023-04-02T04:46:59.768Z,26.42
2023-04-02T04:47:59.874Z,26.58
2023-04-02T04:48:59.842Z,27.31
2023-04-02T04:49:59.943Z,27.03
2023-04-02T04:51:00.016Z,27.60
2023-04-02T04:52:00.051Z,26.31
2023-04-02T04:53:00.119Z,26.31
2023-04-02T04:54:00.178Z,28.04
2023-04-02T04:55:00.226Z,28.11
2023-04-02T04:56:12.550Z,26.57
2023-04-02T04:57:01.342Z,26.77
2023-04-02T04:58:00.241Z,27.14
2023-04-02T04:59:00.269Z,27.22
2023-04-02T05:00:00.246Z,26.88
2023-04-02T05:01:00.240Z,28.18
2023-04-02T05:02:00.256Z,27.46
2023-04-02T05:03:00.259Z,27.31
2023-04-02T05:04:00.245Z,27.59
2023-04-02T05:05:00.319Z,25.90
2023-04-02T05:06:00.363Z,27.85
2023-04-02T05:07:00.386Z,25.16
2023-04-02T05:08:00.463Z,26.86
2023-04-02T05:09:00.512Z,25.00
2023-04-02T05:10:00.564Z,25.98
2023-04-02T05:11:00.619Z,27.23
2023-04-02T05:12:00.666Z,26.62
2023-04-02T05:13:00.776Z,25.93
2023-04-02T05:14:00.822Z,26.81
2023-04-02T05:15:00.874Z,27.71
2023-04-02T05:16:01.505Z,27.70
2023-04-02T05:17:00.973Z,26.54
2023-04-02T05:18:01.120Z,26.98
2023-04-02T05:19:01.105Z,28.35
2023-04-02T05:20:01.148Z,25.00
2023-04-02T05:21:01.242Z,29.07
2023-04-02T05:22:01.303Z,27.67
2023-04-02T05:23:01.360Z,27.64
2023-04-02T05:24:01.412Z,27.59
2023-04-02T05:25:01.466Z,26.18
2023-04-02T05:26:01.498Z,28.89
2023-04-02T05:27:01.570Z,26.49
2023-04-02T05:28:01.662Z,27.86
2023-04-02T05:29:01.729Z,26.18
2023-04-02T05:30:01.713Z,27.98
2023-04-02T05:31:01.783Z,26.80
2023-04-02T05:32:01.846Z,26.61
2023-04-02T05:33:01.957Z,25.92
2023-04-02T05:34:01.905Z,25.94
2023-04-02T05:35:01.950Z,26.53
2023-04-02T05:36:02.044Z,26.76
2023-04-02T05:37:02.030Z,26.71
2023-04-02T05:38:02.086Z,27.83
2023-04-02T05:39:02.155Z,28.77
2023-04-02T05:40:02.164Z,26.36
2023-04-02T05:41:02.239Z,26.81
2023-04-02T05:42:02.270Z,28.63
2023-04-02T05:43:02.305Z,27.55
2023-04-02T05:44:02.383Z,26.15
2023-04-02T05:45:02.438Z,26.67
2023-04-02T05:46:02.492Z,26.74
2023-04-02T05:47:02.581Z,26.78
2023-04-02T05:48:02.672Z,29.34
2023-04-02T05:49:02.637Z,25.42
2023-04-02T05:50:02.703Z,28.39
2023-04-02T05:51:02.721Z,26.55
2023-04-02T05:52:02.768Z,28.51
2023-04-02T05:53:02.835Z,25.30
2023-04-02T05:54:02.822Z,26.40
2023-04-02T05:55:02.870Z,25.90
2023-04-02T05:56:02.931Z,26.13
2023-04-02T05:57:03.070Z,27.76
2023-04-02T05:58:25.435Z,28.54
2023-04-02T05:59:04.014Z,28.75
2023-04-02T06:00:02.980Z,28.69
2023-04-02T06:01:02.948Z,28.64
2023-04-02T06:02:03.036Z,26.62
2023-04-02T06:03:03.038Z,28.41
2023-04-02T06:04:02.968Z,27.92
2023-04-02T06:05:02.941Z,28.28
2023-04-02T06:06:02.924Z,27.47
2023-04-02T06:07:02.925Z,27.49
2023-04-02T06:08:02.899Z,27.91
2023-04-02T06:09:02.919Z,31.01
2023-04-02T06:10:02.950Z,27.77
2023-04-02T06:11:02.957Z,25.81
2023-04-02T06:12:03.046Z,27.60
2023-04-02T06:13:03.076Z,28.45
2023-04-02T06:14:03.106Z,27.71
2023-04-02T06:15:03.180Z,27.80
2023-04-02T06:16:03.221Z,28.39
2023-04-02T06:17:03.274Z,27.78
2023-04-02T06:18:03.392Z,28.22
2023-04-02T06:19:03.333Z,26.60
2023-04-02T06:20:03.375Z,27.63
2023-04-02T06:21:03.434Z,26.23
2023-04-02T06:22:03.480Z,26.32
2023-04-02T06:23:03.542Z,26.98
2023-04-02T06:24:03.560Z,27.25
2023-04-02T06:25:03.591Z,26.59
2023-04-02T06:26:03.654Z,27.76
2023-04-02T06:27:04.269Z,28.32
2023-04-02T06:28:03.738Z,26.53
2023-04-02T06:29:03.807Z,27.04
2023-04-02T06:30:03.829Z,27.09
2023-04-02T06:31:03.912Z,27.13
2023-04-02T06:32:03.952Z,26.63
2023-04-02T06:33:04.054Z,27.20
2023-04-02T06:34:04.046Z,28.62
2023-04-02T06:35:04.082Z,26.40
2023-04-02T06:36:04.230Z,26.17
2023-04-02T06:37:04.248Z,26.13
2023-04-02T06:38:04.287Z,26.33
2023-04-02T06:39:04.335Z,25.86
2023-04-02T06:40:04.409Z,25.00
2023-04-02T06:41:04.512Z,27.01
2023-04-02T06:42:04.524Z,26.36
2023-04-02T06:43:04.613Z,27.44
2023-04-02T06:44:04.636Z,26.54
2023-04-02T06:45:04.725Z,26.86
2023-04-02T06:46:04.836Z,28.04
2023-04-02T06:47:04.845Z,29.13
2023-04-02T06:48:04.905Z,28.29
2023-04-02T06:49:04.965Z,28.19
2023-04-02T06:50:04.998Z,26.48
2023-04-02T06:51:05.071Z,27.28
2023-04-02T06:52:05.180Z,26.48
2023-04-02T06:53:05.183Z,26.25
2023-04-02T06:54:05.229Z,26.72
2023-04-02T06:55:05.341Z,27.86
2023-04-02T06:56:05.372Z,26.28
2023-04-02T06:57:05.455Z,28.26
2023-04-02T06:58:05.465Z,27.00
2023-04-02T06:59:05.587Z,26.16
2023-04-02T07:00:05.650Z,27.29
2023-04-02T07:01:05.789Z,27.83
2023-04-02T07:02:05.761Z,27.78
2023-04-02T07:03:05.813Z,26.19
2023-04-02T07:04:05.901Z,26.11
2023-04-02T07:05:06.056Z,25.00
2023-04-02T07:06:05.961Z,26.93
2023-04-02T07:07:06.003Z,26.66
2023-04-02T07:08:06.122Z,26.52
2023-04-02T07:09:06.138Z,27.48
2023-04-02T07:10:06.228Z,27.26
2023-04-02T07:11:06.276Z,25.33
2023-04-02T07:12:06.332Z,27.19
2023-04-02T07:13:06.377Z,28.08
2023-04-02T07:14:06.459Z,27.11
2023-04-02T07:15:06.485Z,27.34
2023-04-02T07:16:06.570Z,25.00
2023-04-02T07:17:06.601Z,25.56
2023-04-02T07:18:06.681Z,29.09
2023-04-02T07:19:06.767Z,28.28
2023-04-02T07:20:06.794Z,25.12
2023-04-02T07:21:06.858Z,25.65
2023-04-02T07:22:06.929Z,25.65
2023-04-02T07:23:06.979Z,26.96
2023-04-02T07:24:07.057Z,27.44
2023-04-02T07:25:07.065Z,28.45
2023-04-02T07:26:07.136Z,26.54
2023-04-02T07:27:07.182Z,27.93
2023-04-02T07:28:07.248Z,27.09
2023-04-02T07:29:07.758Z,25.00
2023-04-02T07:30:07.382Z,26.27
2023-04-02T07:31:07.438Z,26.07
2023-04-02T07:32:07.469Z,26.44
2023-04-02T07:33:07.620Z,25.00
2023-04-02T07:34:07.596Z,26.59
2023-04-02T07:35:07.612Z,28.64
2023-04-02T07:36:07.746Z,27.16
2023-04-02T07:37:07.745Z,26.73
2023-04-02T07:38:07.841Z,27.30
2023-04-02T07:39:07.836Z,26.79
2023-04-02T07:40:07.879Z,26.90
2023-04-02T07:41:07.962Z,27.67
2023-04-02T07:42:07.987Z,27.69
2023-04-02T07:43:08.050Z,27.35
2023-04-02T07:44:08.122Z,27.40
2023-04-02T07:45:08.172Z,28.46
2023-04-02T07:46:08.217Z,29.70
2023-04-02T07:47:08.289Z,28.77
2023-04-02T07:48:08.390Z,26.74
2023-04-02T07:49:08.452Z,28.13
2023-04-02T07:50:08.429Z,27.02
2023-04-02T07:51:08.461Z,28.64
2023-04-02T07:52:08.535Z,26.10
2023-04-02T07:53:08.592Z,27.77
2023-04-02T07:54:08.656Z,26.86
2023-04-02T07:55:08.711Z,26.65
2023-04-02T07:56:08.731Z,25.91
2023-04-02T07:57:08.813Z,26.96
2023-04-02T07:58:08.861Z,27.20
2023-04-02T07:59:08.892Z,26.12
2023-04-02T08:00:08.966Z,27.39
2023-04-02T08:01:09.004Z,28.06
2023-04-02T08:02:09.135Z,27.64
2023-04-02T08:03:09.173Z,27.60
2023-04-02T08:04:09.189Z,26.72
2023-04-02T08:05:09.232Z,28.61
2023-04-02T08:06:09.267Z,27.66
2023-04-02T08:07:09.355Z,27.31
2023-04-02T08:08:09.384Z,27.01
2023-04-02T08:09:09.450Z,27.22
2023-04-02T08:10:09.463Z,27.77
2023-04-02T08:11:09.556Z,28.88
2023-04-02T08:12:09.577Z,28.22
2023-04-02T08:13:09.623Z,30.25
2023-04-02T08:14:09.704Z,29.61
2023-04-02T08:15:09.718Z,28.61
2023-04-02T08:16:09.782Z,28.70
2023-04-02T08:17:09.836Z,28.65
2023-04-02T08:18:09.936Z,29.21
2023-04-02T08:19:09.949Z,29.64
2023-04-02T08:20:09.963Z,30.31
2023-04-02T08:21:10.017Z,30.46
2023-04-02T08:22:10.082Z,29.46
2023-04-02T08:23:10.074Z,31.07
2023-04-02T08:24:10.168Z,30.65
2023-04-02T08:25:10.160Z,30.73
2023-04-02T08:26:10.232Z,31.32
2023-04-02T08:27:10.279Z,30.04
2023-04-02T08:28:10.304Z,30.27
2023-04-02T08:29:10.354Z,30.01
2023-04-02T08:30:10.388Z,30.74
2023-04-02T08:31:10.467Z,30.29
2023-04-02T08:32:10.477Z,31.52
2023-04-02T08:33:10.546Z,31.45
2023-04-02T08:34:10.603Z,29.60
2023-04-02T08:35:10.595Z,28.14
2023-04-02T08:36:10.768Z,30.34
2023-04-02T08:37:10.680Z,31.26
2023-04-02T08:38:10.750Z,31.05
2023-04-02T08:39:10.759Z,32.43
2023-04-02T08:40:10.795Z,31.71
2023-04-02T08:41:10.841Z,31.03
2023-04-02T08:42:10.888Z,31.16
2023-04-02T08:43:10.888Z,33.97
2023-04-02T08:44:10.979Z,30.22
2023-04-02T08:45:23.702Z,31.07
2023-04-02T08:46:12.067Z,31.25
2023-04-02T08:47:10.959Z,31.75
2023-04-02T08:48:10.985Z,32.11
2023-04-02T08:49:10.969Z,30.47
2023-04-02T08:50:10.949Z,30.18
2023-04-02T08:51:10.978Z,30.60
2023-04-02T08:52:10.952Z,31.42
2023-04-02T08:53:10.941Z,34.06
2023-04-02T08:54:10.951Z,33.60
2023-04-02T08:55:10.917Z,32.97
2023-04-02T08:56:10.920Z,33.32
2023-04-02T08:57:10.959Z,31.56
2023-04-02T08:58:10.927Z,32.19
2023-04-02T08:59:10.990Z,31.23
2023-04-02T09:00:11.020Z,33.99
2023-04-02T09:01:11.112Z,31.03
2023-04-02T09:02:11.110Z,30.50
2023-04-02T09:03:11.246Z,32.08
2023-04-02T09:04:11.183Z,34.58
2023-04-02T09:05:11.277Z,31.10
2023-04-02T09:06:11.217Z,35.35
2023-04-02T09:07:11.264Z,32.81
2023-04-02T09:08:11.302Z,32.03
2023-04-02T09:09:11.345Z,29.64
2023-04-02T09:10:11.392Z,30.72
2023-04-02T09:11:11.398Z,29.27
2023-04-02T09:12:11.440Z,29.07
2023-04-02T09:13:11.432Z,29.26
2023-04-02T09:14:11.480Z,32.84
2023-04-02T09:15:11.510Z,30.09
2023-04-02T09:16:11.603Z,31.50
2023-04-02T09:17:11.571Z,30.24
2023-04-02T09:18:11.570Z,30.70
2023-04-02T09:19:11.609Z,28.86
2023-04-02T09:20:11.636Z,30.08
2023-04-02T09:21:11.655Z,29.25
2023-04-02T09:22:11.710Z,29.18
2023-04-02T09:23:11.707Z,30.13
2023-04-02T09:24:11.757Z,28.49
2023-04-02T09:25:11.758Z,30.22
2023-04-02T09:26:11.803Z,30.11
2023-04-02T09:27:11.822Z,30.98
2023-04-02T09:28:11.854Z,31.10
2023-04-02T09:29:11.849Z,32.76
2023-04-02T09:30:11.921Z,26.60
2023-04-02T09:31:11.945Z,30.41
2023-04-02T09:32:11.894Z,30.09
2023-04-02T09:33:11.978Z,34.64
2023-04-02T09:34:11.954Z,32.05
2023-04-02T09:35:22.352Z,32.31
2023-04-02T09:36:15.075Z,32.45
2023-04-02T09:37:11.990Z,32.70
2023-04-02T09:38:11.981Z,32.92
2023-04-02T09:39:11.930Z,33.22
2023-04-02T09:40:11.932Z,32.79
2023-04-02T09:41:11.935Z,33.54
2023-04-02T09:42:11.922Z,33.56
2023-04-02T09:43:11.922Z,33.10
2023-04-02T09:44:11.916Z,32.45
2023-04-02T09:45:11.912Z,27.44
2023-04-02T09:46:11.909Z,33.58
2023-04-02T09:47:11.871Z,37.22
2023-04-02T09:48:11.931Z,32.59
2023-04-02T09:49:11.877Z,31.26
2023-04-02T09:50:11.845Z,31.10
2023-04-02T09:51:11.864Z,32.90
2023-04-02T09:52:11.857Z,33.16
2023-04-02T09:53:11.861Z,32.90
2023-04-02T09:54:11.850Z,33.12
2023-04-02T09:55:11.841Z,30.35
2023-04-02T09:56:11.843Z,33.59
2023-04-02T09:57:11.877Z,31.81
2023-04-02T09:58:11.811Z,34.85
2023-04-02T09:59:11.783Z,32.35
2023-04-02T10:00:21.807Z,32.78
2023-04-02T10:01:12.817Z,33.03
2023-04-02T10:02:11.775Z,33.11
2023-04-02T10:03:11.783Z,33.49
2023-04-02T10:04:11.774Z,31.35
2023-04-02T10:05:11.756Z,33.28
2023-04-02T10:06:11.751Z,34.44
2023-04-02T10:07:11.742Z,32.93
2023-04-02T10:08:11.748Z,31.33
2023-04-02T10:09:11.712Z,28.31
2023-04-02T10:10:11.766Z,33.69
2023-04-02T10:11:11.708Z,31.51
2023-04-02T10:12:11.692Z,36.09
2023-04-02T10:13:11.711Z,32.29
2023-04-02T10:14:11.673Z,32.94
2023-04-02T10:15:11.690Z,30.45
2023-04-02T10:16:11.769Z,31.85
2023-04-02T10:17:11.727Z,32.15
2023-04-02T10:18:11.653Z,32.61
2023-04-02T10:19:11.681Z,28.81
2023-04-02T10:20:11.702Z,34.68
2023-04-02T10:21:11.646Z,30.89
2023-04-02T10:22:11.658Z,29.02
2023-04-02T10:23:11.636Z,33.19
2023-04-02T10:24:11.656Z,30.66
2023-04-02T10:25:11.618Z,32.12
2023-04-02T10:26:11.641Z,33.61
2023-04-02T10:27:11.657Z,31.57
2023-04-02T10:28:11.596Z,32.40
2023-04-02T10:29:11.651Z,33.08
2023-04-02T10:30:11.617Z,34.32
2023-04-02T10:31:11.666Z,34.99
2023-04-02T10:32:11.611Z,32.20
2023-04-02T10:33:11.629Z,31.07
2023-04-02T10:34:11.576Z,30.65
2023-04-02T10:35:11.592Z,29.75
2023-04-02T10:36:11.653Z,26.45
2023-04-02T10:37:11.570Z,29.23
2023-04-02T10:38:11.542Z,31.31
2023-04-02T10:39:11.568Z,31.69
2023-04-02T10:40:11.605Z,31.30
2023-04-02T10:41:11.569Z,31.91
2023-04-02T10:42:11.549Z,29.28
2023-04-02T10:43:11.580Z,33.35
2023-04-02T10:44:19.677Z,33.54
2023-04-02T10:45:12.588Z,33.72
2023-04-02T10:46:11.640Z,33.72
2023-04-02T10:47:11.569Z,32.41
2023-04-02T10:48:11.573Z,31.37
2023-04-02T10:49:11.598Z,31.35
2023-04-02T10:50:11.568Z,27.74
2023-04-02T10:51:11.529Z,32.63
2023-04-02T10:52:11.520Z,31.98
2023-04-02T10:53:11.508Z,31.75
2023-04-02T10:54:11.573Z,32.86
2023-04-02T10:55:11.510Z,30.79
2023-04-02T10:56:11.493Z,30.26
2023-04-02T10:57:11.558Z,30.35
2023-04-02T10:58:11.510Z,31.06
2023-04-02T10:59:11.505Z,30.35
2023-04-02T11:00:11.565Z,29.40
2023-04-02T11:01:11.495Z,31.84
2023-04-02T11:02:11.453Z,30.73
2023-04-02T11:03:11.595Z,30.89
2023-04-02T11:04:12.078Z,29.03
2023-04-02T11:05:11.632Z,29.78
2023-04-02T11:06:12.085Z,31.06
2023-04-02T11:07:14.843Z,32.11
2023-04-02T11:08:11.680Z,35.05
2023-04-02T11:09:11.654Z,33.74
2023-04-02T11:10:11.611Z,33.01
2023-04-02T11:11:11.621Z,30.62
2023-04-02T11:12:11.624Z,31.24
2023-04-02T11:13:11.606Z,33.66
2023-04-02T11:14:11.573Z,31.11
2023-04-02T11:15:11.595Z,30.80
2023-04-02T11:16:11.684Z,30.34
2023-04-02T11:17:11.568Z,33.60
2023-04-02T11:18:11.569Z,31.82
2023-04-02T11:19:11.571Z,29.74
2023-04-02T11:20:11.581Z,33.09
2023-04-02T11:21:11.545Z,31.15
2023-04-02T11:22:11.538Z,30.85
2023-04-02T11:23:11.542Z,31.18
2023-04-02T11:24:11.538Z,31.52
2023-04-02T11:25:11.556Z,31.04
2023-04-02T11:26:11.527Z,31.12
2023-04-02T11:27:11.610Z,28.08
2023-04-02T11:28:11.476Z,29.85
2023-04-02T11:29:11.493Z,30.14
2023-04-02T11:30:11.512Z,30.63
2023-04-02T11:31:11.498Z,29.14
2023-04-02T11:32:11.456Z,30.24
2023-04-02T11:33:11.471Z,29.19
2023-04-02T11:34:11.465Z,29.85
2023-04-02T11:35:11.488Z,30.27
2023-04-02T11:36:11.449Z,29.92
2023-04-02T11:37:11.459Z,31.39
2023-04-02T11:38:11.458Z,27.53
2023-04-02T11:39:17.504Z,30.47
2023-04-02T11:40:12.426Z,30.76
2023-04-02T11:41:11.440Z,31.07
2023-04-02T11:42:11.424Z,30.67
2023-04-02T11:43:11.416Z,30.50
2023-04-02T11:44:11.422Z,30.99
2023-04-02T11:45:11.374Z,30.94
2023-04-02T11:46:11.419Z,34.75
2023-04-02T11:47:11.375Z,28.08
2023-04-02T11:48:11.373Z,30.12
2023-04-02T11:49:11.359Z,30.96
2023-04-02T11:50:11.884Z,28.09
2023-04-02T11:51:11.367Z,29.18
2023-04-02T11:52:12.656Z,30.43
2023-04-02T11:53:11.372Z,29.90
2023-04-02T11:54:11.373Z,29.25
2023-04-02T11:55:11.374Z,26.41
2023-04-02T11:56:11.326Z,25.49
2023-04-02T11:57:11.360Z,30.65
2023-04-02T11:58:11.285Z,28.79
2023-04-02T11:59:11.366Z,32.14
2023-04-02T12:00:11.300Z,27.21
2023-04-02T12:01:11.288Z,30.80
2023-04-02T12:02:11.943Z,27.48
2023-04-02T12:03:11.293Z,28.50
2023-04-02T12:04:11.303Z,27.41
2023-04-02T12:05:11.302Z,27.19
2023-04-02T12:06:11.293Z,28.77
2023-04-02T12:07:11.249Z,28.08
2023-04-02T12:08:11.234Z,29.66
2023-04-02T12:09:11.228Z,29.01
2023-04-02T12:10:11.261Z,29.18
2023-04-02T12:11:11.240Z,30.31
2023-04-02T12:12:11.248Z,27.57
2023-04-02T12:13:11.214Z,29.42
2023-04-02T12:14:11.244Z,30.08
2023-04-02T12:15:11.194Z,27.05
2023-04-02T12:16:11.270Z,26.56
2023-04-02T12:17:11.318Z,30.21
2023-04-02T12:18:11.221Z,28.45
2023-04-02T12:19:11.235Z,27.74
2023-04-02T12:20:11.314Z,32.77
2023-04-02T12:21:11.262Z,33.86
2023-04-02T12:22:11.269Z,31.52
2023-04-02T12:23:11.265Z,31.46
2023-04-02T12:24:11.250Z,30.15
2023-04-02T12:25:11.285Z,30.04
2023-04-02T12:26:11.290Z,30.54
2023-04-02T12:27:11.319Z,32.84
2023-04-02T12:28:11.369Z,29.42
2023-04-02T12:29:11.385Z,30.15
2023-04-02T12:30:11.363Z,32.42
2023-04-02T12:31:11.389Z,30.74
2023-04-02T12:32:11.366Z,29.43
2023-04-02T12:33:11.421Z,30.92
2023-04-02T12:34:11.398Z,29.62
2023-04-02T12:35:11.421Z,33.33
2023-04-02T12:36:11.446Z,29.74
2023-04-02T12:37:11.464Z,33.71
2023-04-02T12:38:11.470Z,29.33
2023-04-02T12:39:11.462Z,33.53
2023-04-02T12:40:11.488Z,29.41
2023-04-02T12:41:11.499Z,29.04
2023-04-02T12:42:11.499Z,32.24
2023-04-02T12:43:11.527Z,30.74
2023-04-02T12:44:11.566Z,25.31
2023-04-02T12:45:11.546Z,30.59
2023-04-02T12:46:11.590Z,30.17
2023-04-02T12:47:11.531Z,29.77
2023-04-02T12:48:11.624Z,29.83
2023-04-02T12:49:11.578Z,25.00
2023-04-02T12:50:11.574Z,27.08
2023-04-02T12:51:11.623Z,28.74
2023-04-02T12:52:11.619Z,29.69
2023-04-02T12:53:11.602Z,30.14